Time;durP1;ratioP1;P1;durP2;ratioP2;P2;SDS_P1;SDS_P2;PMS_P1;PMS_P2;Temp;Humidity;BMP_temperature;BMP_pressure;BME280_temperature;BME280_humidity;BME280_pressure;Samples;Min_cycle;Max_cycle;Signal;HPM_P1;HPM_P2
2021/12/10 00:02:10;;;;;;;35.17;17.80;;;;;;;;;;4975165;28;20194;-72
2021/12/10 00:04:37;;;;;;;36.53;16.97;;;;;;;;;;5001602;28;20186;-72
2021/12/10 00:07:09;;;;;;;30.33;16.33;;;;;;;;;;4998004;28;20222;-72
2021/12/10 00:09:39;;;;;;;37.60;18.37;;;;;;;;;;5012284;28;20179;-72
2021/12/10 00:12:13;;;;;;;40.67;16.47;;;;;;;;;;4999777;28;21525;-72
2021/12/10 00:14:39;;;;;;;33.80;15.90;;;;;;;;;;5004338;28;20284;-72
2021/12/10 00:17:07;;;;;;;38.20;17.07;;;;;;;;;;5000778;28;20269;-72
2021/12/10 00:19:38;;;;;;;30.43;15.63;;;;;;;;;;5001238;28;20281;-72
2021/12/10 00:22:10;;;;;;;32.10;16.10;;;;;;;;;;5006042;28;20631;-72
2021/12/10 00:24:38;;;;;;;33.23;15.37;;;;;;;;;;4994756;28;20179;-72
2021/12/10 00:27:05;;;;;;;30.73;15.67;;;;;;;;;;5007249;28;20550;-72
2021/12/10 00:29:32;;;;;;;28.57;14.93;;;;;;;;;;4996841;28;20199;-72
2021/12/10 00:32:03;;;;;;;32.33;15.60;;;;;;;;;;4998916;28;20652;-72
2021/12/10 00:34:31;;;;;;;28.63;14.60;;;;;;;;;;4992030;28;20306;-72
2021/12/10 00:37:02;;;;;;;30.23;14.77;;;;;;;;;;5011236;28;20256;-72
2021/12/10 00:39:31;;;;;;;31.57;13.93;;;;;;;;;;5002990;28;20190;-72
2021/12/10 00:42:00;;;;;;;32.53;15.43;;;;;;;;;;5011326;28;20606;-72
2021/12/10 00:44:25;;;;;;;29.27;14.83;;;;;;;;;;4995197;28;20183;-72
2021/12/10 00:46:51;;;;;;;27.83;15.07;;;;;;;;;;5015133;28;20260;-72
2021/12/10 00:49:17;;;;;;;32.23;14.17;;;;;;;;;;5000943;28;20204;-72
2021/12/10 00:51:44;;;;;;;27.43;13.67;;;;;;;;;;4999963;28;20179;-72
2021/12/10 00:54:10;;;;;;;35.03;14.90;;;;;;;;;;4996745;28;20225;-72
2021/12/10 00:56:37;;;;;;;31.20;13.80;;;;;;;;;;4999343;28;20182;-73
2021/12/10 00:59:03;;;;;;;31.67;13.17;;;;;;;;;;5000942;28;20191;-72
2021/12/10 01:01:31;;;;;;;34.33;13.53;;;;;;;;;;4998379;28;20183;-72
2021/12/10 01:04:28;;;;;;;28.23;12.80;;;;;;;;;;5003726;28;20179;-72
2021/12/10 01:06:56;;;;;;;41.73;14.07;;;;;;;;;;5008758;28;20257;-72
2021/12/10 01:09:31;;;;;;;27.73;12.73;;;;;;;;;;5004728;28;20209;-72
2021/12/10 01:12:23;;;;;;;31.87;13.73;;;;;;;;;;5000204;28;20190;-72
2021/12/10 01:29:23;;;;;;;29.20;14.20;;;;;;;;;;5004100;28;20238;-72
2021/12/10 01:31:50;;;;;;;27.43;14.00;;;;;;;;;;4996578;28;20191;-72
2021/12/10 01:34:15;;;;;;;35.43;14.23;;;;;;;;;;5006811;28;20259;-72
2021/12/10 01:36:41;;;;;;;31.10;14.77;;;;;;;;;;5001229;28;20686;-72
2021/12/10 01:39:11;;;;;;;33.30;16.20;;;;;;;;;;5004643;28;20546;-72
2021/12/10 01:41:39;;;;;;;32.90;15.33;;;;;;;;;;5000653;28;20339;-72
2021/12/10 01:44:14;;;;;;;34.10;15.00;;;;;;;;;;5007417;28;20790;-73
2021/12/10 01:46:40;;;;;;;39.47;15.67;;;;;;;;;;4996540;28;20508;-72
2021/12/10 01:49:08;;;;;;;35.47;15.53;;;;;;;;;;5010430;28;20182;-72
2021/12/10 01:51:36;;;;;;;26.33;14.20;;;;;;;;;;5006897;28;20618;-72
2021/12/10 01:54:07;;;;;;;36.57;16.53;;;;;;;;;;4999303;28;20219;-72
2021/12/10 01:56:36;;;;;;;45.37;16.33;;;;;;;;;;5008405;28;20281;-72
2021/12/10 01:59:04;;;;;;;37.90;17.40;;;;;;;;;;4999935;28;20657;-72
2021/12/10 02:01:34;;;;;;;41.63;17.57;;;;;;;;;;5002687;28;20649;-72
2021/12/10 02:04:03;;;;;;;45.57;18.20;;;;;;;;;;4998855;28;20577;-72
2021/12/10 02:06:28;;;;;;;41.93;18.03;;;;;;;;;;5012747;28;20276;-72
2021/12/10 02:08:54;;;;;;;41.83;19.00;;;;;;;;;;5000008;28;20422;-72
2021/12/10 02:11:20;;;;;;;40.80;20.03;;;;;;;;;;4999071;28;20628;-72
2021/12/10 02:13:46;;;;;;;41.10;19.80;;;;;;;;;;5001369;28;20202;-72
2021/12/10 02:16:12;;;;;;;47.80;20.77;;;;;;;;;;5006940;28;20191;-71
2021/12/10 02:18:38;;;;;;;53.40;21.83;;;;;;;;;;4998161;28;20257;-71
2021/12/10 02:21:03;;;;;;;45.60;21.33;;;;;;;;;;5007540;28;20226;-71
2021/12/10 02:23:36;;;;;;;45.23;21.47;;;;;;;;;;4998723;28;20502;-71
2021/12/10 02:26:03;;;;;;;41.33;19.90;;;;;;;;;;5009088;28;20544;-71
2021/12/10 02:28:29;;;;;;;37.07;20.83;;;;;;;;;;5006543;28;20560;-71
2021/12/10 02:30:56;;;;;;;39.23;19.73;;;;;;;;;;5001791;28;20269;-71
2021/12/10 02:33:21;;;;;;;41.53;19.87;;;;;;;;;;5003186;28;20603;-71
2021/12/10 02:35:47;;;;;;;43.50;20.50;;;;;;;;;;4995518;28;20245;-71
2021/12/10 02:38:16;;;;;;;43.00;18.87;;;;;;;;;;5007517;28;20214;-71
2021/12/10 02:40:43;;;;;;;37.00;18.90;;;;;;;;;;4998942;28;20191;-71
2021/12/10 02:43:11;;;;;;;39.37;18.87;;;;;;;;;;5005892;28;20289;-71
2021/12/10 02:45:39;;;;;;;45.87;20.10;;;;;;;;;;4998772;28;20557;-71
2021/12/10 02:48:05;;;;;;;36.63;19.10;;;;;;;;;;5010617;28;20306;-71
2021/12/10 02:50:32;;;;;;;38.23;19.23;;;;;;;;;;5000188;28;20507;-71
2021/12/10 02:52:58;;;;;;;33.30;17.90;;;;;;;;;;5009466;28;20195;-71
2021/12/10 02:55:24;;;;;;;40.10;19.03;;;;;;;;;;4998361;28;20736;-71
2021/12/10 02:57:53;;;;;;;36.00;18.67;;;;;;;;;;5009164;28;20536;-71
2021/12/10 03:00:23;;;;;;;40.10;19.43;;;;;;;;;;5005407;28;20201;-72
2021/12/10 03:02:49;;;;;;;39.43;18.80;;;;;;;;;;5000914;28;20222;-72
2021/12/10 03:05:14;;;;;;;40.10;18.17;;;;;;;;;;5006644;28;20230;-72
2021/12/10 03:07:41;;;;;;;33.80;16.67;;;;;;;;;;4998161;28;20197;-71
2021/12/10 03:10:16;;;;;;;32.13;17.47;;;;;;;;;;5009335;28;20194;-72
2021/12/10 03:12:41;;;;;;;32.67;16.87;;;;;;;;;;5000276;28;20202;-72
2021/12/10 03:15:09;;;;;;;31.60;16.97;;;;;;;;;;5008975;28;20300;-71
2021/12/10 03:17:34;;;;;;;35.57;17.33;;;;;;;;;;5005168;28;20535;-72
2021/12/10 03:20:04;;;;;;;32.30;17.53;;;;;;;;;;5006756;28;20280;-72
2021/12/10 03:22:29;;;;;;;27.50;16.43;;;;;;;;;;4995181;28;20190;-72
2021/12/10 03:24:55;;;;;;;31.30;17.23;;;;;;;;;;5005736;28;20468;-72
2021/12/10 03:27:24;;;;;;;33.07;16.13;;;;;;;;;;4996800;28;20265;-72
2021/12/10 03:29:50;;;;;;;36.47;15.87;;;;;;;;;;5006664;28;20179;-71
2021/12/10 03:32:21;;;;;;;33.67;16.63;;;;;;;;;;4996298;28;20682;-72
2021/12/10 03:34:47;;;;;;;33.30;16.13;;;;;;;;;;5009401;28;20209;-72
2021/12/10 03:37:17;;;;;;;35.73;16.90;;;;;;;;;;5012626;28;20194;-72
2021/12/10 03:39:43;;;;;;;35.93;16.70;;;;;;;;;;4999440;28;20186;-72
2021/12/10 03:42:09;;;;;;;31.80;15.77;;;;;;;;;;5006545;28;20572;-72
2021/12/10 03:44:35;;;;;;;28.77;15.27;;;;;;;;;;5002868;28;20190;-72
2021/12/10 03:47:04;;;;;;;28.57;15.80;;;;;;;;;;5010811;28;20191;-72
2021/12/10 03:49:29;;;;;;;29.83;16.10;;;;;;;;;;4997760;28;20697;-72
2021/12/10 03:51:55;;;;;;;37.13;17.50;;;;;;;;;;5006028;28;20220;-72
2021/12/10 03:54:20;;;;;;;35.47;16.67;;;;;;;;;;4998660;28;20215;-72
2021/12/10 03:56:48;;;;;;;31.20;15.87;;;;;;;;;;5006552;28;20195;-72
2021/12/10 03:59:17;;;;;;;29.37;16.20;;;;;;;;;;4996151;28;20520;-72
2021/12/10 04:01:45;;;;;;;31.53;16.07;;;;;;;;;;5005899;28;20269;-72
2021/12/10 04:04:18;;;;;;;33.30;16.10;;;;;;;;;;4990574;28;20665;-72
2021/12/10 04:06:43;;;;;;;35.60;16.10;;;;;;;;;;5004107;28;20642;-72
2021/12/10 04:09:09;;;;;;;35.60;16.63;;;;;;;;;;4997978;28;20270;-72
2021/12/10 04:11:36;;;;;;;30.47;16.57;;;;;;;;;;5004100;28;20203;-72
2021/12/10 04:14:05;;;;;;;32.60;17.90;;;;;;;;;;5005590;28;20213;-72
2021/12/10 04:16:30;;;;;;;35.10;16.70;;;;;;;;;;4998125;28;20280;-72
2021/12/10 04:18:57;;;;;;;36.57;17.37;;;;;;;;;;5003423;28;20346;-71
2021/12/10 04:21:24;;;;;;;28.77;16.77;;;;;;;;;;4998712;28;20593;-72
2021/12/10 04:23:50;;;;;;;31.47;17.17;;;;;;;;;;5001272;28;20668;-72
2021/12/10 04:26:18;;;;;;;32.23;17.10;;;;;;;;;;4995631;28;20196;-72
2021/12/10 04:28:45;;;;;;;32.83;17.23;;;;;;;;;;5005839;28;20202;-72
2021/12/10 04:31:10;;;;;;;32.70;16.83;;;;;;;;;;4998882;28;20650;-72
2021/12/10 04:33:36;;;;;;;32.53;17.13;;;;;;;;;;5003609;28;20194;-72
2021/12/10 04:36:03;;;;;;;30.00;15.63;;;;;;;;;;5000270;28;20290;-72
2021/12/10 04:38:30;;;;;;;32.10;15.47;;;;;;;;;;5010741;28;20196;-72
2021/12/10 04:41:00;;;;;;;32.53;16.63;;;;;;;;;;5011452;28;20498;-71
2021/12/10 04:43:26;;;;;;;32.63;16.93;;;;;;;;;;5004274;28;20190;-72
2021/12/10 04:45:54;;;;;;;24.83;15.00;;;;;;;;;;5002814;28;20167;-72
2021/12/10 04:48:21;;;;;;;33.93;17.20;;;;;;;;;;4997863;28;20190;-71
2021/12/10 04:50:47;;;;;;;30.63;15.73;;;;;;;;;;5003456;28;20711;-71
2021/12/10 04:53:13;;;;;;;31.40;17.10;;;;;;;;;;4996733;28;20241;-72
2021/12/10 04:55:39;;;;;;;28.67;15.77;;;;;;;;;;5008572;28;20202;-72
2021/12/10 04:58:04;;;;;;;29.00;15.80;;;;;;;;;;4995880;28;20217;-71
2021/12/10 05:00:35;;;;;;;30.97;15.60;;;;;;;;;;5008223;28;20178;-71
2021/12/10 05:03:01;;;;;;;28.63;15.43;;;;;;;;;;5000228;28;20558;-71
2021/12/10 05:05:27;;;;;;;33.53;16.80;;;;;;;;;;5006669;28;20175;-71
2021/12/10 05:07:53;;;;;;;26.87;15.27;;;;;;;;;;5000633;28;20193;-71
2021/12/10 05:10:19;;;;;;;30.50;15.37;;;;;;;;;;5016683;28;20178;-71
2021/12/10 05:12:45;;;;;;;28.60;15.17;;;;;;;;;;5002808;28;20195;-71
2021/12/10 05:15:14;;;;;;;31.73;15.13;;;;;;;;;;5004089;28;20214;-70
2021/12/10 05:17:40;;;;;;;31.20;15.07;;;;;;;;;;5002806;28;20238;-72
2021/12/10 05:20:12;;;;;;;30.77;15.77;;;;;;;;;;5012920;28;20582;-71
2021/12/10 05:22:40;;;;;;;29.53;14.80;;;;;;;;;;5009873;28;20637;-72
2021/12/10 05:25:07;;;;;;;29.77;13.77;;;;;;;;;;4993880;28;20191;-72
2021/12/10 05:27:33;;;;;;;27.33;13.80;;;;;;;;;;5006831;28;20195;-72
2021/12/10 05:29:58;;;;;;;28.30;14.47;;;;;;;;;;4998359;28;20202;-71
2021/12/10 05:32:24;;;;;;;27.87;13.33;;;;;;;;;;5003297;28;21015;-71
2021/12/10 05:34:49;;;;;;;28.50;12.73;;;;;;;;;;5000581;28;20211;-72
2021/12/10 05:37:15;;;;;;;25.73;13.33;;;;;;;;;;5008536;28;20329;-71
2021/12/10 05:39:40;;;;;;;22.87;13.50;;;;;;;;;;4998875;28;20182;-72
2021/12/10 05:42:06;;;;;;;24.80;12.70;;;;;;;;;;5010188;28;20238;-72
2021/12/10 05:44:31;;;;;;;24.80;12.97;;;;;;;;;;5002583;28;20178;-72
2021/12/10 05:46:59;;;;;;;23.63;12.27;;;;;;;;;;5016037;28;20601;-72
2021/12/10 05:49:27;;;;;;;21.90;11.53;;;;;;;;;;5005064;28;20718;-72
2021/12/10 05:51:53;;;;;;;26.53;11.77;;;;;;;;;;5014010;28;20277;-72
2021/12/10 05:54:18;;;;;;;21.03;11.90;;;;;;;;;;5010931;28;20252;-72
2021/12/10 05:56:44;;;;;;;22.33;11.43;;;;;;;;;;5000207;28;20182;-72
2021/12/10 05:59:09;;;;;;;24.50;11.67;;;;;;;;;;5010055;28;20191;-71
2021/12/10 06:01:35;;;;;;;24.47;11.70;;;;;;;;;;5001401;28;20221;-72
2021/12/10 06:04:02;;;;;;;22.80;10.70;;;;;;;;;;5007540;28;20248;-72
2021/12/10 06:06:30;;;;;;;21.67;9.80;;;;;;;;;;5000944;28;20669;-72
2021/12/10 06:08:57;;;;;;;19.53;11.03;;;;;;;;;;5011827;28;20223;-72
2021/12/10 06:11:25;;;;;;;16.67;9.77;;;;;;;;;;5001917;28;20210;-71
2021/12/10 06:13:51;;;;;;;23.77;10.50;;;;;;;;;;5006102;28;20234;-71
2021/12/10 06:16:17;;;;;;;18.57;9.33;;;;;;;;;;4998022;28;20229;-71
2021/12/10 06:18:43;;;;;;;19.30;8.93;;;;;;;;;;5006518;28;20243;-71
2021/12/10 06:21:08;;;;;;;16.83;9.13;;;;;;;;;;4998280;28;21600;-71
2021/12/10 06:23:34;;;;;;;19.43;9.27;;;;;;;;;;5006406;28;20198;-71
2021/12/10 06:25:59;;;;;;;16.90;8.30;;;;;;;;;;5008911;28;20190;-71
2021/12/10 06:28:25;;;;;;;21.63;8.70;;;;;;;;;;4996428;28;20374;-72
2021/12/10 06:30:52;;;;;;;17.00;8.37;;;;;;;;;;5004422;28;20202;-71
2021/12/10 06:33:21;;;;;;;20.57;8.40;;;;;;;;;;4995463;28;20197;-71
2021/12/10 06:35:49;;;;;;;23.50;8.57;;;;;;;;;;5008531;28;20305;-72
2021/12/10 06:38:15;;;;;;;19.97;8.87;;;;;;;;;;4999405;28;20212;-71
2021/12/10 06:40:42;;;;;;;15.83;8.23;;;;;;;;;;5009254;28;20191;-71
2021/12/10 06:43:09;;;;;;;21.27;7.63;;;;;;;;;;4995505;28;20191;-70
2021/12/10 06:45:36;;;;;;;18.13;7.33;;;;;;;;;;5007461;28;20292;-71
2021/12/10 06:48:07;;;;;;;14.43;7.53;;;;;;;;;;5000197;28;20293;-71
2021/12/10 06:50:37;;;;;;;16.27;7.63;;;;;;;;;;5009502;28;20199;-71
2021/12/10 06:53:02;;;;;;;15.47;7.17;;;;;;;;;;4997643;28;20186;-70
2021/12/10 06:55:30;;;;;;;17.97;7.50;;;;;;;;;;5008539;28;20287;-71
2021/12/10 06:57:56;;;;;;;16.47;6.47;;;;;;;;;;5001712;28;20240;-71
2021/12/10 07:00:43;;;;;;;14.90;7.60;;;;;;;;;;5011519;28;20207;-71
2021/12/10 07:03:16;;;;;;;19.03;7.10;;;;;;;;;;5001625;28;20188;-71
2021/12/10 07:05:42;;;;;;;14.23;7.70;;;;;;;;;;5010581;28;20199;-71
2021/12/10 07:08:08;;;;;;;12.17;6.87;;;;;;;;;;5005517;28;20208;-71
2021/12/10 07:10:33;;;;;;;19.30;7.23;;;;;;;;;;5002969;28;20191;-71
2021/12/10 07:13:00;;;;;;;15.93;7.23;;;;;;;;;;5007725;28;20651;-71
2021/12/10 07:15:27;;;;;;;17.07;9.37;;;;;;;;;;4997939;28;20210;-71
2021/12/10 07:17:52;;;;;;;16.10;7.43;;;;;;;;;;5005962;28;20243;-71
2021/12/10 07:20:22;;;;;;;14.13;6.90;;;;;;;;;;5008632;28;20198;-71
2021/12/10 07:22:48;;;;;;;22.30;7.13;;;;;;;;;;5008071;28;20187;-71
2021/12/10 07:25:14;;;;;;;16.53;7.17;;;;;;;;;;4993314;28;20584;-72
2021/12/10 07:27:39;;;;;;;18.00;6.90;;;;;;;;;;5005293;28;20532;-71
2021/12/10 07:30:07;;;;;;;25.57;7.63;;;;;;;;;;4997195;28;20704;-70
2021/12/10 07:32:33;;;;;;;17.40;6.83;;;;;;;;;;4998200;28;20222;-71
2021/12/10 07:34:58;;;;;;;13.80;7.10;;;;;;;;;;4998247;28;20210;-71
2021/12/10 07:37:24;;;;;;;13.87;6.67;;;;;;;;;;5005598;28;20206;-71
2021/12/10 07:39:49;;;;;;;17.27;6.87;;;;;;;;;;5004720;28;20193;-71
2021/12/10 07:42:14;;;;;;;16.33;6.97;;;;;;;;;;5004696;28;20234;-71
2021/12/10 07:44:40;;;;;;;16.77;6.87;;;;;;;;;;5001404;28;20206;-71
2021/12/10 07:47:09;;;;;;;16.30;7.17;;;;;;;;;;4997013;28;20680;-71
2021/12/10 07:49:37;;;;;;;16.03;6.63;;;;;;;;;;5007339;28;20234;-71
2021/12/10 07:52:06;;;;;;;15.83;6.47;;;;;;;;;;5000392;28;20576;-71
2021/12/10 07:54:32;;;;;;;15.83;6.30;;;;;;;;;;5010554;28;20232;-71
2021/12/10 07:56:57;;;;;;;16.00;6.80;;;;;;;;;;5017797;28;20191;-71
2021/12/10 07:59:23;;;;;;;17.00;6.63;;;;;;;;;;5012289;28;20188;-71
2021/12/10 08:01:48;;;;;;;19.20;7.60;;;;;;;;;;4997109;28;20194;-71
2021/12/10 08:04:14;;;;;;;17.87;7.67;;;;;;;;;;4999572;28;20601;-71
2021/12/10 08:06:39;;;;;;;15.37;6.83;;;;;;;;;;4990830;28;20206;-71
2021/12/10 08:09:07;;;;;;;19.23;7.60;;;;;;;;;;5004487;28;20277;-71
2021/12/10 08:11:33;;;;;;;17.63;6.87;;;;;;;;;;4993768;28;20190;-71
2021/12/10 08:13:59;;;;;;;15.17;7.50;;;;;;;;;;5006479;28;20205;-71
2021/12/10 08:16:25;;;;;;;18.87;8.00;;;;;;;;;;5007723;28;20273;-71
2021/12/10 08:18:52;;;;;;;17.23;7.97;;;;;;;;;;5001414;28;20397;-71
2021/12/10 08:21:17;;;;;;;18.00;7.23;;;;;;;;;;5004652;28;20186;-71
2021/12/10 08:23:43;;;;;;;12.80;7.27;;;;;;;;;;4995552;28;20630;-71
2021/12/10 08:26:09;;;;;;;14.57;7.40;;;;;;;;;;5006639;28;20518;-71
2021/12/10 08:28:36;;;;;;;13.53;7.77;;;;;;;;;;4997580;28;20201;-70
2021/12/10 08:31:03;;;;;;;15.57;8.00;;;;;;;;;;5013530;28;20196;-70
2021/12/10 08:33:29;;;;;;;17.77;7.87;;;;;;;;;;5004818;28;20201;-71
2021/12/10 08:36:02;;;;;;;13.63;7.20;;;;;;;;;;5012429;28;20192;-71
2021/12/10 08:38:29;;;;;;;13.57;7.43;;;;;;;;;;5004377;28;20186;-71
2021/12/10 08:41:07;;;;;;;16.83;8.17;;;;;;;;;;5007584;28;20647;-71
2021/12/10 08:43:33;;;;;;;15.67;7.77;;;;;;;;;;5005478;28;20642;-71
2021/12/10 08:46:01;;;;;;;21.60;7.67;;;;;;;;;;5017817;28;20176;-71
2021/12/10 08:48:28;;;;;;;13.30;7.23;;;;;;;;;;5005203;28;20290;-71
2021/12/10 08:50:55;;;;;;;13.97;7.67;;;;;;;;;;5016316;28;20257;-71
2021/12/10 08:53:21;;;;;;;13.23;7.20;;;;;;;;;;5010837;28;20650;-71
2021/12/10 08:55:50;;;;;;;13.93;8.00;;;;;;;;;;5008259;28;20216;-71
2021/12/10 08:58:16;;;;;;;15.53;7.93;;;;;;;;;;5008021;28;20231;-71
2021/12/10 09:00:47;;;;;;;17.17;8.23;;;;;;;;;;4998313;28;20210;-71
2021/12/10 09:03:12;;;;;;;13.70;7.13;;;;;;;;;;4999313;28;20186;-71
2021/12/10 09:05:38;;;;;;;15.20;7.60;;;;;;;;;;4995395;28;20198;-71
2021/12/10 09:08:05;;;;;;;15.33;7.53;;;;;;;;;;5003967;28;20666;-71
2021/12/10 09:10:36;;;;;;;18.40;7.03;;;;;;;;;;5006237;28;20646;-71
2021/12/10 09:13:02;;;;;;;12.57;7.07;;;;;;;;;;5006351;28;20207;-71
2021/12/10 09:15:29;;;;;;;13.83;6.93;;;;;;;;;;4998169;28;20210;-71
2021/12/10 09:17:58;;;;;;;13.80;6.97;;;;;;;;;;5004979;28;20234;-71
2021/12/10 09:20:31;;;;;;;13.60;6.93;;;;;;;;;;4998448;28;20202;-71
2021/12/10 09:22:57;;;;;;;13.60;6.57;;;;;;;;;;5010764;28;20289;-71
2021/12/10 09:25:23;;;;;;;12.67;6.97;;;;;;;;;;5004182;28;20610;-71
2021/12/10 09:27:48;;;;;;;13.70;6.53;;;;;;;;;;5000071;28;20190;-71
2021/12/10 09:30:16;;;;;;;11.13;6.63;;;;;;;;;;5008467;28;20237;-71
2021/12/10 09:32:42;;;;;;;13.43;6.40;;;;;;;;;;5000306;28;20538;-71
2021/12/10 09:35:08;;;;;;;10.50;5.87;;;;;;;;;;5010239;28;20218;-71
2021/12/10 09:37:36;;;;;;;13.17;6.20;;;;;;;;;;4998432;28;20281;-70
2021/12/10 09:40:06;;;;;;;14.50;6.13;;;;;;;;;;5008424;28;20194;-71
2021/12/10 09:42:32;;;;;;;13.03;5.83;;;;;;;;;;5004350;28;20187;-71
2021/12/10 09:44:58;;;;;;;12.83;6.90;;;;;;;;;;5009740;28;20522;-71
2021/12/10 09:47:24;;;;;;;14.00;6.07;;;;;;;;;;4995495;28;20197;-71
2021/12/10 09:49:53;;;;;;;13.17;6.37;;;;;;;;;;5004639;28;20213;-71
2021/12/10 09:52:21;;;;;;;10.67;6.00;;;;;;;;;;4995295;28;20256;-71
2021/12/10 09:54:48;;;;;;;12.63;5.83;;;;;;;;;;5005260;28;20238;-71
2021/12/10 09:57:21;;;;;;;7.80;5.43;;;;;;;;;;5014583;28;20629;-71
2021/12/10 09:59:51;;;;;;;11.87;6.23;;;;;;;;;;5008068;28;20236;-71
2021/12/10 10:02:19;;;;;;;10.27;5.70;;;;;;;;;;5003616;28;20195;-72
2021/12/10 10:04:49;;;;;;;10.27;5.63;;;;;;;;;;5008900;28;20225;-72
2021/12/10 10:07:20;;;;;;;10.60;5.50;;;;;;;;;;5008009;28;20647;-72
2021/12/10 10:09:48;;;;;;;9.77;5.17;;;;;;;;;;4999269;28;20554;-72
2021/12/10 10:12:19;;;;;;;8.97;5.37;;;;;;;;;;5006472;28;20306;-72
2021/12/10 10:14:45;;;;;;;9.53;5.23;;;;;;;;;;4997181;28;20219;-72
2021/12/10 10:17:12;;;;;;;11.47;6.40;;;;;;;;;;5009003;28;20289;-72
2021/12/10 10:19:40;;;;;;;10.97;4.47;;;;;;;;;;5000283;28;20321;-72
2021/12/10 10:22:12;;;;;;;8.87;5.13;;;;;;;;;;5014073;28;20210;-72
2021/12/10 10:24:38;;;;;;;8.43;4.40;;;;;;;;;;5005216;28;20191;-72
2021/12/10 10:27:08;;;;;;;7.90;4.60;;;;;;;;;;5008753;28;20743;-72
2021/12/10 10:29:36;;;;;;;9.03;5.27;;;;;;;;;;5005368;28;20710;-72
2021/12/10 10:32:12;;;;;;;7.90;4.87;;;;;;;;;;5012167;28;20207;-72
2021/12/10 10:34:42;;;;;;;12.90;4.80;;;;;;;;;;5010429;28;20560;-72
2021/12/10 10:37:08;;;;;;;8.07;4.37;;;;;;;;;;5008844;28;20190;-72
2021/12/10 10:39:36;;;;;;;12.53;4.40;;;;;;;;;;5009786;28;20575;-72
2021/12/10 10:42:05;;;;;;;11.33;4.43;;;;;;;;;;5007263;28;20656;-72
2021/12/10 10:44:31;;;;;;;9.80;4.57;;;;;;;;;;5003863;28;20190;-72
2021/12/10 10:46:59;;;;;;;9.60;4.30;;;;;;;;;;5008851;28;20266;-72
2021/12/10 10:49:40;;;;;;;10.53;4.00;;;;;;;;;;5010400;28;20190;-72
2021/12/10 10:52:28;;;;;;;14.07;4.27;;;;;;;;;;5015108;28;20375;-72
2021/12/10 10:54:57;;;;;;;7.43;3.67;;;;;;;;;;5000275;28;20321;-72
2021/12/10 10:57:26;;;;;;;9.03;3.80;;;;;;;;;;5013174;28;20188;-72
2021/12/10 10:59:58;;;;;;;9.50;4.23;;;;;;;;;;5011094;28;20377;-71
2021/12/10 11:02:37;;;;;;;7.60;3.70;;;;;;;;;;5007832;28;20638;-71
2021/12/10 11:05:10;;;;;;;9.67;3.67;;;;;;;;;;5002006;28;20190;-71
2021/12/10 11:07:51;;;;;;;9.47;3.53;;;;;;;;;;5015702;28;20243;-71
2021/12/10 11:10:40;;;;;;;5.73;3.20;;;;;;;;;;5008920;28;20183;-71
2021/12/10 11:13:17;;;;;;;7.37;3.13;;;;;;;;;;5005122;28;20577;-72
2021/12/10 11:16:09;;;;;;;7.50;3.43;;;;;;;;;;5004127;28;20202;-72
2021/12/10 11:18:45;;;;;;;9.17;3.40;;;;;;;;;;5009747;28;20237;-72
2021/12/10 11:21:11;;;;;;;9.83;3.13;;;;;;;;;;4996712;28;20174;-72
2021/12/10 11:23:39;;;;;;;5.03;3.00;;;;;;;;;;5010700;28;20241;-72
2021/12/10 11:26:06;;;;;;;8.83;3.30;;;;;;;;;;5008681;28;20171;-71
2021/12/10 11:28:36;;;;;;;6.17;2.90;;;;;;;;;;4993623;28;20256;-72
2021/12/10 11:31:09;;;;;;;12.63;3.60;;;;;;;;;;5015525;28;20626;-73
2021/12/10 11:33:41;;;;;;;6.73;2.80;;;;;;;;;;4998053;28;20196;-73
2021/12/10 11:36:12;;;;;;;6.50;2.90;;;;;;;;;;5004634;28;20229;-74
2021/12/10 11:38:39;;;;;;;9.17;2.50;;;;;;;;;;5001113;28;20191;-73
2021/12/10 11:41:18;;;;;;;5.23;2.50;;;;;;;;;;5012349;28;20198;-71
2021/12/10 11:49:38;;;;;;;7.07;2.77;;;;;;;;;;5000001;28;20329;-73
2021/12/10 11:52:15;;;;;;;6.13;2.80;;;;;;;;;;5005982;28;20182;-71
2021/12/10 11:54:45;;;;;;;7.63;2.90;;;;;;;;;;4998640;28;20317;-72
2021/12/10 11:57:30;;;;;;;6.13;2.47;;;;;;;;;;4308696;28;10000727;-72
2021/12/10 11:59:58;;;;;;;5.87;2.30;;;;;;;;;;4998339;28;20281;-72
2021/12/10 12:02:44;;;;;;;9.73;2.73;;;;;;;;;;5004304;28;20183;-72
2021/12/10 12:05:14;;;;;;;7.27;2.47;;;;;;;;;;4996774;28;20694;-72
2021/12/10 12:07:54;;;;;;;9.77;2.90;;;;;;;;;;5007958;28;20232;-72
2021/12/10 12:10:41;;;;;;;8.77;2.50;;;;;;;;;;4997160;28;20268;-72
2021/12/10 12:15:44;;;;;;;8.90;2.63;;;;;;;;;;4994963;28;20214;-72
2021/12/10 12:18:31;;;;;;;8.37;2.50;;;;;;;;;;5000986;28;20257;-72
2021/12/10 12:27:06;;;;;;;7.23;2.60;;;;;;;;;;5004084;28;20677;-71
2021/12/10 12:29:46;;;;;;;9.00;2.30;;;;;;;;;;5003442;28;20656;-72
2021/12/10 12:32:17;;;;;;;10.43;2.83;;;;;;;;;;5008614;28;20187;-72
2021/12/10 12:34:43;;;;;;;8.53;2.77;;;;;;;;;;5002964;28;20211;-72
2021/12/10 12:37:11;;;;;;;7.70;2.70;;;;;;;;;;4996271;28;20191;-72
2021/12/10 12:39:47;;;;;;;12.20;2.50;;;;;;;;;;5004958;28;20641;-72
2021/12/10 12:42:19;;;;;;;6.23;2.67;;;;;;;;;;4994554;28;20198;-72
2021/12/10 12:44:46;;;;;;;6.57;2.60;;;;;;;;;;5002922;28;20273;-72
2021/12/10 12:47:21;;;;;;;7.07;2.40;;;;;;;;;;4995013;28;20194;-72
2021/12/10 12:49:46;;;;;;;7.90;2.50;;;;;;;;;;5002535;28;20229;-72
2021/12/10 12:52:18;;;;;;;4.83;2.30;;;;;;;;;;4996533;28;20195;-72
2021/12/10 12:55:05;;;;;;;8.97;2.87;;;;;;;;;;4997436;28;20620;-71
2021/12/10 12:57:52;;;;;;;11.07;2.47;;;;;;;;;;4999097;28;20195;-72
2021/12/10 13:00:26;;;;;;;7.07;2.77;;;;;;;;;;5005214;28;20716;-72
2021/12/10 13:02:55;;;;;;;9.50;2.60;;;;;;;;;;4996860;28;20190;-73
2021/12/10 13:05:32;;;;;;;8.73;2.50;;;;;;;;;;5006786;28;20604;-73
2021/12/10 13:08:07;;;;;;;7.23;2.57;;;;;;;;;;4993422;28;20186;-72
2021/12/10 13:10:35;;;;;;;7.30;2.63;;;;;;;;;;5008219;28;20229;-72
2021/12/10 13:13:11;;;;;;;6.33;2.50;;;;;;;;;;4996171;28;20609;-72
2021/12/10 13:15:38;;;;;;;10.40;2.60;;;;;;;;;;5000910;28;20556;-72
2021/12/10 13:18:07;;;;;;;7.43;2.73;;;;;;;;;;4994736;28;20632;-72
2021/12/10 13:20:40;;;;;;;6.87;2.53;;;;;;;;;;4996104;28;20546;-72
2021/12/10 13:23:13;;;;;;;4.87;2.40;;;;;;;;;;4996398;28;20209;-72
2021/12/10 13:25:40;;;;;;;7.23;2.47;;;;;;;;;;5007730;28;20190;-72
2021/12/10 13:28:06;;;;;;;6.30;3.03;;;;;;;;;;5001924;28;20205;-72
2021/12/10 13:30:41;;;;;;;6.93;2.83;;;;;;;;;;5006547;28;20187;-72
2021/12/10 13:33:08;;;;;;;8.43;2.97;;;;;;;;;;4998444;28;20178;-72
2021/12/10 13:35:34;;;;;;;7.63;2.97;;;;;;;;;;5005898;28;20898;-72
2021/12/10 13:38:02;;;;;;;9.67;2.60;;;;;;;;;;5010884;28;20396;-72
2021/12/10 13:40:31;;;;;;;9.47;3.10;;;;;;;;;;5000720;28;20639;-71
2021/12/10 13:43:01;;;;;;;6.63;3.07;;;;;;;;;;5018922;28;20656;-71
2021/12/10 13:45:27;;;;;;;6.57;3.30;;;;;;;;;;4997854;28;20253;-70
2021/12/10 13:48:03;;;;;;;9.13;3.50;;;;;;;;;;5009257;28;20194;-72
2021/12/10 13:50:32;;;;;;;9.17;3.30;;;;;;;;;;5014789;28;20236;-72
2021/12/10 13:53:04;;;;;;;7.87;3.10;;;;;;;;;;5006836;28;20285;-72
2021/12/10 13:55:32;;;;;;;8.00;3.13;;;;;;;;;;4997340;28;20277;-72
2021/12/10 13:58:08;;;;;;;7.83;3.13;;;;;;;;;;5007856;28;20194;-72
2021/12/10 14:00:33;;;;;;;9.80;3.43;;;;;;;;;;4995384;28;20514;-72
2021/12/10 14:02:59;;;;;;;10.13;3.37;;;;;;;;;;5003506;28;20210;-73
2021/12/10 14:05:28;;;;;;;8.97;3.03;;;;;;;;;;4999206;28;20217;-72
2021/12/10 14:08:09;;;;;;;9.57;3.30;;;;;;;;;;5005768;28;20645;-72
2021/12/10 14:10:40;;;;;;;12.00;3.07;;;;;;;;;;4998563;28;20740;-72
2021/12/10 14:13:07;;;;;;;9.30;3.17;;;;;;;;;;5007034;28;20187;-72
2021/12/10 14:15:54;;;;;;;6.07;3.07;;;;;;;;;;4995616;28;20628;-72
2021/12/10 14:18:25;;;;;;;7.00;3.43;;;;;;;;;;5005241;28;20230;-72
2021/12/10 14:20:59;;;;;;;9.63;3.13;;;;;;;;;;5000302;28;20206;-72
2021/12/10 14:23:28;;;;;;;12.33;3.27;;;;;;;;;;5006468;28;20261;-72
2021/12/10 14:26:03;;;;;;;9.93;3.10;;;;;;;;;;5003240;28;20210;-72
2021/12/10 14:28:46;;;;;;;8.63;3.50;;;;;;;;;;5007727;28;20182;-72
2021/12/10 14:31:33;;;;;;;11.53;3.30;;;;;;;;;;4997150;28;20225;-72
2021/12/10 14:34:07;;;;;;;8.93;3.67;;;;;;;;;;5006935;28;20249;-73
2021/12/10 14:36:33;;;;;;;9.33;4.43;;;;;;;;;;4996319;28;20202;-72
2021/12/10 14:39:01;;;;;;;10.50;4.03;;;;;;;;;;5005432;28;20752;-72
2021/12/10 14:41:30;;;;;;;9.23;3.33;;;;;;;;;;4995010;28;20191;-72
2021/12/10 14:44:00;;;;;;;12.13;3.50;;;;;;;;;;5002598;28;21001;-72
2021/12/10 14:46:39;;;;;;;8.33;3.70;;;;;;;;;;4995567;28;20738;-72
2021/12/10 14:49:28;;;;;;;8.80;3.80;;;;;;;;;;5008508;28;20405;-72
2021/12/10 14:52:14;;;;;;;8.97;3.60;;;;;;;;;;4996953;28;20189;-72
2021/12/10 14:55:27;;;;;;;11.07;3.70;;;;;;;;;;5010028;28;20218;-72
2021/12/10 14:58:11;;;;;;;8.50;3.50;;;;;;;;;;4986831;28;20226;-72
2021/12/10 15:00:43;;;;;;;7.70;3.50;;;;;;;;;;5005558;28;20191;-72
2021/12/10 15:03:13;;;;;;;8.50;3.40;;;;;;;;;;4992520;28;20191;-72
2021/12/10 15:05:43;;;;;;;8.97;3.57;;;;;;;;;;5000884;28;20170;-72
2021/12/10 15:08:13;;;;;;;6.37;3.90;;;;;;;;;;4990129;28;20289;-72
2021/12/10 15:10:43;;;;;;;7.43;3.80;;;;;;;;;;5004620;28;20185;-73